createdAt,value
2019-03-03T00:02:41.936Z,7.90
2019-03-03T00:07:09.574Z,8.00
2019-03-03T00:11:37.293Z,8.00
2019-03-03T00:16:04.847Z,8.00
2019-03-03T00:20:16.566Z,8.10
2019-03-03T00:24:28.064Z,8.10
2019-03-03T00:28:39.316Z,8.10
2019-03-03T00:32:50.608Z,8.20
2019-03-03T00:37:03.452Z,8.20
2019-03-03T00:41:16.379Z,8.30
2019-03-03T00:45:33.298Z,8.30
2019-03-03T00:49:48.832Z,8.30
2019-03-03T00:54:17.915Z,8.30
2019-03-03T00:58:30.725Z,8.30
2019-03-03T01:02:43.688Z,8.30
2019-03-03T01:06:56.510Z,8.30
2019-03-03T01:11:09.306Z,8.30
2019-03-03T01:15:38.708Z,8.40
2019-03-03T01:19:57.648Z,8.40
2019-03-03T01:24:25.862Z,8.40
2019-03-03T01:28:37.120Z,8.50
2019-03-03T01:32:48.261Z,8.50
2019-03-03T01:36:59.482Z,8.50
2019-03-03T01:41:10.599Z,8.50
2019-03-03T01:45:21.742Z,8.60
2019-03-03T01:49:32.995Z,8.60
2019-03-03T01:53:44.315Z,8.60
2019-03-03T01:57:55.523Z,8.70
2019-03-03T02:02:06.787Z,8.80
2019-03-03T02:06:18.000Z,8.90
2019-03-03T02:10:29.212Z,8.80
2019-03-03T02:14:40.327Z,8.90
2019-03-03T02:18:51.491Z,8.90
2019-03-03T02:23:02.813Z,8.90
2019-03-03T02:27:14.003Z,9.00
2019-03-03T02:31:25.122Z,8.90
2019-03-03T02:35:36.331Z,8.90
2019-03-03T02:39:49.029Z,8.90
2019-03-03T02:44:00.168Z,8.90
2019-03-03T02:48:11.289Z,8.90
2019-03-03T02:52:22.519Z,8.90
2019-03-03T02:56:33.759Z,8.80
2019-03-03T03:00:47.063Z,8.80
2019-03-03T03:04:58.199Z,8.80
2019-03-03T03:09:11.206Z,8.80
2019-03-03T03:13:26.330Z,8.80
2019-03-03T03:17:45.008Z,8.80
2019-03-03T03:21:57.863Z,8.80
2019-03-03T03:26:19.515Z,8.80
2019-03-03T03:30:43.661Z,8.80
2019-03-03T03:34:59.192Z,8.80
2019-03-03T03:39:17.948Z,8.80
2019-03-03T03:43:47.728Z,8.90
2019-03-03T03:48:03.440Z,8.90
2019-03-03T03:52:16.213Z,9.00
2019-03-03T03:56:38.453Z,9.00
2019-03-03T04:00:51.345Z,9.00
2019-03-03T04:05:04.080Z,9.10
2019-03-03T04:09:17.052Z,9.20
2019-03-03T04:13:44.740Z,9.20
2019-03-03T04:18:01.075Z,9.20
2019-03-03T04:22:30.168Z,9.20
2019-03-03T04:26:46.192Z,9.20
2019-03-03T04:31:07.747Z,9.20
2019-03-03T04:35:23.300Z,9.20
2019-03-03T04:39:42.489Z,9.10
2019-03-03T04:44:07.207Z,9.10
2019-03-03T04:48:20.034Z,9.20
2019-03-03T04:52:32.784Z,9.20
2019-03-03T04:56:45.644Z,9.20
2019-03-03T05:01:01.384Z,9.20
2019-03-03T05:05:17.138Z,9.20
2019-03-03T05:09:32.452Z,9.20
2019-03-03T05:13:57.351Z,9.20
2019-03-03T05:18:10.111Z,9.20
2019-03-03T05:22:21.358Z,9.20
2019-03-03T05:26:32.707Z,9.20
2019-03-03T05:30:45.023Z,9.20
2019-03-03T05:34:56.317Z,9.20
2019-03-03T05:39:07.647Z,9.20
2019-03-03T05:43:18.898Z,9.20
2019-03-03T05:47:30.159Z,9.20
2019-03-03T05:51:41.371Z,9.20
2019-03-03T05:55:52.588Z,9.20
2019-03-03T06:00:04.792Z,9.20
2019-03-03T06:04:16.041Z,9.10
2019-03-03T06:08:27.188Z,9.10
2019-03-03T06:12:38.610Z,9.10
2019-03-03T06:16:49.854Z,9.20
2019-03-03T06:21:01.336Z,9.20
2019-03-03T06:25:14.065Z,9.20
2019-03-03T06:29:25.215Z,9.30
2019-03-03T06:33:36.428Z,9.40
2019-03-03T06:37:47.559Z,9.40
2019-03-03T06:41:58.788Z,9.50
2019-03-03T06:46:10.004Z,9.50
2019-03-03T06:50:21.487Z,9.60
2019-03-03T06:54:32.635Z,9.60
2019-03-03T06:58:43.870Z,9.60
2019-03-03T07:02:55.991Z,9.60
2019-03-03T07:07:07.619Z,9.70
2019-03-03T07:11:19.999Z,9.70
2019-03-03T07:15:31.394Z,9.80
2019-03-03T07:19:42.544Z,9.80
2019-03-03T07:23:53.885Z,9.80
2019-03-03T07:28:06.078Z,9.80
2019-03-03T07:32:17.299Z,9.90
2019-03-03T07:36:28.413Z,9.90
2019-03-03T07:40:39.633Z,10.00
2019-03-03T07:44:50.878Z,10.00
2019-03-03T07:49:01.999Z,10.10
2019-03-03T07:53:14.313Z,10.20
2019-03-03T07:57:25.383Z,10.30
2019-03-03T08:01:36.508Z,10.40
2019-03-03T08:05:47.624Z,10.40
2019-03-03T08:09:58.767Z,10.30
2019-03-03T08:14:10.022Z,10.40
2019-03-03T08:18:21.191Z,10.40
2019-03-03T08:22:32.414Z,10.40
2019-03-03T08:26:43.625Z,10.40
2019-03-03T08:30:55.078Z,10.40
2019-03-03T08:35:09.340Z,10.50
2019-03-03T08:39:20.463Z,10.60
2019-03-03T08:43:33.334Z,10.70
2019-03-03T08:48:04.353Z,10.90
2019-03-03T08:52:20.204Z,11.10
2019-03-03T08:56:48.223Z,11.30
2019-03-03T09:01:13.162Z,11.50
2019-03-03T09:05:26.194Z,11.50
2019-03-03T09:09:38.964Z,11.50
2019-03-03T09:13:51.963Z,11.70
2019-03-03T09:18:04.822Z,11.80
2019-03-03T09:22:20.461Z,12.00
2019-03-03T09:26:47.876Z,12.20
2019-03-03T09:31:06.835Z,12.40
2019-03-03T09:35:37.508Z,12.20
2019-03-03T09:40:08.807Z,12.10
2019-03-03T09:44:16.498Z,12.10
2019-03-03T09:48:38.255Z,12.20
2019-03-03T09:52:51.332Z,12.10
2019-03-03T09:57:14.197Z,12.10
2019-03-03T10:01:36.160Z,12.20
2019-03-03T10:05:51.536Z,12.10
2019-03-03T10:10:04.414Z,12.10
2019-03-03T10:14:23.308Z,12.10
2019-03-03T10:18:42.091Z,12.00
2019-03-03T10:22:57.630Z,12.00
2019-03-03T10:27:10.388Z,12.00
2019-03-03T10:31:23.261Z,12.00
2019-03-03T10:35:54.364Z,12.20
2019-03-03T10:40:12.327Z,12.30
2019-03-03T10:44:27.953Z,12.30
2019-03-03T10:48:45.876Z,12.30
2019-03-03T10:52:58.641Z,12.20
2019-03-03T10:57:27.843Z,12.20
2019-03-03T11:01:43.681Z,12.10
2019-03-03T11:06:11.355Z,12.10
2019-03-03T11:10:38.867Z,12.10
2019-03-03T11:15:00.836Z,12.10
2019-03-03T11:19:13.735Z,12.20
2019-03-03T11:23:42.360Z,12.20
2019-03-03T11:28:28.737Z,12.20
2019-03-03T11:32:57.996Z,12.10
2019-03-03T11:37:14.166Z,11.90
2019-03-03T11:41:25.980Z,11.90
2019-03-03T11:45:58.249Z,11.90
2019-03-03T11:50:30.432Z,11.80
2019-03-03T11:55:08.089Z,11.70
2019-03-03T11:59:29.874Z,11.60
2019-03-03T12:03:48.508Z,11.60
2019-03-03T12:08:13.258Z,11.50
2019-03-03T12:12:26.034Z,11.50
2019-03-03T12:16:47.900Z,11.50
2019-03-03T12:21:01.615Z,11.40
2019-03-03T12:25:29.397Z,11.40
2019-03-03T12:29:58.691Z,11.40
2019-03-03T12:34:11.606Z,11.40
2019-03-03T12:38:40.487Z,11.40
2019-03-03T12:43:02.415Z,11.50
2019-03-03T12:47:24.368Z,11.60
2019-03-03T12:51:40.276Z,11.60
2019-03-03T12:55:53.171Z,11.60
2019-03-03T13:00:14.937Z,11.50
2019-03-03T13:04:30.467Z,11.60
2019-03-03T13:08:59.892Z,11.60
2019-03-03T13:13:15.480Z,11.70
2019-03-03T13:17:48.265Z,11.70
2019-03-03T13:22:00.591Z,11.70
2019-03-03T13:26:28.176Z,11.70
2019-03-03T13:30:46.884Z,11.70
2019-03-03T13:34:59.888Z,11.70
2019-03-03T13:39:16.962Z,11.70
2019-03-03T13:43:28.287Z,11.70
2019-03-03T13:47:39.566Z,11.80
2019-03-03T13:51:50.769Z,11.80
2019-03-03T13:56:01.963Z,11.80
2019-03-03T14:00:18.313Z,11.80
2019-03-03T14:04:29.546Z,11.80
2019-03-03T14:08:39.705Z,11.70
2019-03-03T14:12:50.810Z,11.70
2019-03-03T14:17:02.380Z,11.70
2019-03-03T14:21:13.913Z,11.70
2019-03-03T14:25:25.313Z,11.70
2019-03-03T14:29:36.462Z,11.70
2019-03-03T14:33:47.683Z,11.70
2019-03-03T14:37:58.990Z,11.70
2019-03-03T14:42:10.222Z,11.70
2019-03-03T14:46:21.363Z,11.80
2019-03-03T14:50:32.484Z,11.80
2019-03-03T14:54:43.641Z,11.80
2019-03-03T14:58:54.801Z,11.80
2019-03-03T15:03:08.494Z,11.80
2019-03-03T15:07:19.789Z,11.70
2019-03-03T15:11:30.965Z,11.80
2019-03-03T15:15:42.184Z,11.70
2019-03-03T15:19:53.325Z,11.80
2019-03-03T15:24:04.576Z,11.80
2019-03-03T15:28:15.760Z,11.80
2019-03-03T15:32:27.191Z,11.70
2019-03-03T15:36:38.416Z,11.70
2019-03-03T15:40:49.544Z,11.70
2019-03-03T15:45:00.701Z,11.60
2019-03-03T15:49:11.808Z,11.50
2019-03-03T15:53:22.979Z,11.40
2019-03-03T15:57:34.124Z,11.40
2019-03-03T16:01:45.250Z,11.40
2019-03-03T16:05:56.407Z,11.30
2019-03-03T16:10:10.662Z,11.30
2019-03-03T16:14:21.836Z,11.20
2019-03-03T16:18:33.084Z,11.20
2019-03-03T16:22:44.307Z,11.20
2019-03-03T16:26:55.565Z,11.20
2019-03-03T16:31:07.641Z,11.30
2019-03-03T16:35:18.832Z,11.30
2019-03-03T16:39:30.181Z,11.30
2019-03-03T16:43:41.322Z,11.20
2019-03-03T16:47:55.822Z,11.10
2019-03-03T16:52:09.838Z,11.10
2019-03-03T16:56:21.026Z,11.10
2019-03-03T17:00:33.042Z,11.00
2019-03-03T17:04:44.205Z,11.00
2019-03-03T17:08:55.361Z,11.00
2019-03-03T17:13:06.512Z,11.00
2019-03-03T17:17:17.638Z,11.00
2019-03-03T17:21:28.761Z,10.90
2019-03-03T17:25:39.882Z,10.90
2019-03-03T17:29:51.053Z,10.90
2019-03-03T17:34:02.297Z,10.90
2019-03-03T17:38:13.446Z,10.90
2019-03-03T17:42:24.570Z,10.90
2019-03-03T17:46:35.693Z,10.90
2019-03-03T17:50:46.811Z,10.80
2019-03-03T17:54:57.944Z,10.80
2019-03-03T17:59:09.126Z,10.80
2019-03-03T18:03:20.355Z,10.80
2019-03-03T18:07:31.612Z,10.80
2019-03-03T18:11:42.847Z,10.80
2019-03-03T18:15:54.001Z,10.80
2019-03-03T18:20:08.186Z,10.70
2019-03-03T18:24:19.513Z,10.80
2019-03-03T18:28:30.884Z,10.80
2019-03-03T18:32:42.154Z,10.70
2019-03-03T18:36:53.519Z,10.70
2019-03-03T18:41:04.636Z,10.80
2019-03-03T18:45:19.998Z,10.80
2019-03-03T18:49:32.686Z,10.80
2019-03-03T18:53:43.946Z,10.70
2019-03-03T18:57:55.117Z,10.70
2019-03-03T19:02:06.411Z,10.70
2019-03-03T19:06:17.537Z,10.70
2019-03-03T19:10:34.083Z,10.80
2019-03-03T19:14:45.198Z,10.80
2019-03-03T19:18:56.331Z,10.80
2019-03-03T19:23:07.649Z,10.90
2019-03-03T19:27:19.418Z,10.90
2019-03-03T19:31:30.758Z,10.80
2019-03-03T19:35:42.047Z,10.80
2019-03-03T19:39:53.620Z,10.80
2019-03-03T19:44:05.141Z,10.80
2019-03-03T19:48:19.733Z,10.80
2019-03-03T19:52:30.870Z,10.80
2019-03-03T19:56:42.095Z,10.80
2019-03-03T20:00:53.455Z,10.80
2019-03-03T20:05:05.364Z,10.80
2019-03-03T20:09:18.155Z,10.90
2019-03-03T20:13:29.597Z,10.90
2019-03-03T20:17:42.656Z,10.90
2019-03-03T20:21:53.878Z,10.90
2019-03-03T20:26:05.174Z,10.80
2019-03-03T20:30:23.616Z,10.90
2019-03-03T20:34:34.824Z,10.90
2019-03-03T20:38:46.083Z,10.90
2019-03-03T20:42:57.374Z,11.00
2019-03-03T20:47:08.564Z,10.90
2019-03-03T20:51:19.688Z,11.00
2019-03-03T20:55:32.238Z,11.00
2019-03-03T20:59:43.531Z,10.90
2019-03-03T21:03:54.755Z,10.90
2019-03-03T21:08:05.963Z,10.90
2019-03-03T21:12:17.251Z,10.90
2019-03-03T21:16:28.580Z,10.90
2019-03-03T21:20:40.618Z,10.90
2019-03-03T21:24:52.031Z,10.90
2019-03-03T21:29:03.196Z,10.90
2019-03-03T21:33:14.529Z,10.90
2019-03-03T21:37:25.681Z,11.00
2019-03-03T21:41:36.834Z,10.90
2019-03-03T21:45:47.999Z,10.90
2019-03-03T21:49:59.149Z,10.90
2019-03-03T21:54:10.399Z,10.90
2019-03-03T21:58:21.590Z,10.90
2019-03-03T22:02:32.731Z,10.90
2019-03-03T22:06:44.059Z,10.90
2019-03-03T22:10:55.443Z,10.90
2019-03-03T22:15:09.633Z,10.90
2019-03-03T22:19:20.999Z,10.90
2019-03-03T22:23:32.150Z,10.90
2019-03-03T22:27:43.390Z,10.90
2019-03-03T22:31:54.676Z,10.90
2019-03-03T22:36:05.900Z,10.90
2019-03-03T22:40:21.590Z,10.90
2019-03-03T22:44:32.700Z,10.90
2019-03-03T22:48:45.238Z,10.90
2019-03-03T22:52:56.565Z,10.80
2019-03-03T22:57:07.724Z,10.90
2019-03-03T23:01:20.465Z,10.90
2019-03-03T23:05:54.615Z,10.90
2019-03-03T23:10:21.180Z,10.80
2019-03-03T23:14:43.829Z,10.90
2019-03-03T23:19:00.654Z,10.80
2019-03-03T23:23:18.658Z,10.80
2019-03-03T23:27:29.775Z,10.80
2019-03-03T23:31:40.932Z,10.80
2019-03-03T23:35:52.466Z,10.80
2019-03-03T23:40:04.652Z,10.80
2019-03-03T23:44:15.792Z,10.70
2019-03-03T23:48:27.060Z,10.70
2019-03-03T23:52:38.187Z,10.70
2019-03-03T23:56:49.347Z,10.70
